Aviation Digital Data Service (ADDS)

Output produced by METARs form (0637 UTC 27 March 2017)
found at http://www.aviationweather.gov/adds/metars/
 
VYMD 270530Z 29008KT 6000 HZ FEW025 35/16 Q1011
TAF VYMD 262300Z 2700/2724 04005KT 6000 NSC 
     TEMPO 2700/2706 34008G18KT 5000 BR FEW025
       
VYYY 270600Z 14004KT 9000 FEW020 FEW110 35/20 Q1013 NOSIG
TAF VYYY 270500Z 2706/2806 21006KT 8000 NSC 
     TEMPO 2706/2712 9000 SCT018 SCT110 SCT250 
     BECMG 2800/2802 3000 BR